TimeCDT,TemperatureF,Dew PointF,Humidity,Sea Level PressureIn,VisibilityMPH,Wind Direction,Wind SpeedMPH,Gust SpeedMPH,PrecipitationIn,Events,Conditions,WindDirDegrees,DateUTC
12:15 AM,69.8,42.8,38,30.17,10.0,South,6.9,-,N/A,,Clear,180,2013-09-06 05:15:00
12:35 AM,69.8,42.8,38,30.16,10.0,South,6.9,-,N/A,,Clear,180,2013-09-06 05:35:00
12:55 AM,69.8,42.8,38,30.16,10.0,South,9.2,-,N/A,,Clear,180,2013-09-06 05:55:00
1:15 AM,68.0,44.6,43,30.16,10.0,SSW,6.9,-,N/A,,Clear,210,2013-09-06 06:15:00
1:35 AM,68.0,44.6,43,30.16,10.0,SSW,6.9,-,N/A,,Clear,210,2013-09-06 06:35:00
1:55 AM,66.2,44.6,46,30.16,10.0,SSW,9.2,-,N/A,,Clear,200,2013-09-06 06:55:00
2:15 AM,66.2,44.6,46,30.16,10.0,South,9.2,-,N/A,,Clear,170,2013-09-06 07:15:00
2:35 AM,66.2,44.6,46,30.16,10.0,SSW,8.1,-,N/A,,Clear,200,2013-09-06 07:35:00
2:55 AM,64.4,46.4,52,30.16,10.0,SSW,6.9,-,N/A,,Clear,200,2013-09-06 07:55:00
3:15 AM,64.4,44.6,49,30.16,10.0,SSW,8.1,-,N/A,,Clear,210,2013-09-06 08:15:00
3:35 AM,64.4,44.6,49,30.16,10.0,SSW,8.1,-,N/A,,Clear,210,2013-09-06 08:35:00
3:55 AM,64.4,44.6,49,30.15,10.0,SW,6.9,-,N/A,,Clear,220,2013-09-06 08:55:00
4:15 AM,64.4,44.6,49,30.15,10.0,SSW,6.9,-,N/A,,Clear,210,2013-09-06 09:15:00
4:35 AM,64.4,44.6,49,30.15,10.0,SW,6.9,-,N/A,,Clear,220,2013-09-06 09:35:00
4:55 AM,64.4,46.4,52,30.14,10.0,SSW,9.2,-,N/A,,Clear,210,2013-09-06 09:55:00
5:15 AM,64.4,46.4,52,30.14,10.0,SSW,6.9,-,N/A,,Clear,210,2013-09-06 10:15:00
5:35 AM,64.4,46.4,52,30.14,10.0,SW,6.9,-,N/A,,Clear,220,2013-09-06 10:35:00
5:55 AM,64.4,46.4,52,30.14,10.0,SW,6.9,-,N/A,,Clear,220,2013-09-06 10:55:00
6:15 AM,64.4,46.4,52,30.15,10.0,SSW,4.6,-,N/A,,Clear,210,2013-09-06 11:15:00
6:35 AM,64.4,46.4,52,30.15,10.0,SW,6.9,-,N/A,,Clear,220,2013-09-06 11:35:00
6:55 AM,62.6,46.4,55,30.16,10.0,SW,4.6,-,N/A,,Clear,220,2013-09-06 11:55:00
7:15 AM,62.6,46.4,55,30.16,10.0,SSW,3.5,-,N/A,,Clear,210,2013-09-06 12:15:00
7:35 AM,62.6,46.4,55,30.16,10.0,SW,3.5,-,N/A,,Clear,220,2013-09-06 12:35:00
7:55 AM,62.6,46.4,55,30.16,10.0,SSW,5.8,-,N/A,,Clear,210,2013-09-06 12:55:00
8:15 AM,64.4,46.4,52,30.17,10.0,SW,4.6,-,N/A,,Clear,230,2013-09-06 13:15:00
8:35 AM,68.0,48.2,49,30.16,10.0,SSW,6.9,-,N/A,,Clear,200,2013-09-06 13:35:00
8:55 AM,71.6,48.2,43,30.16,10.0,South,9.2,-,N/A,,Clear,190,2013-09-06 13:55:00
9:15 AM,75.2,50.0,41,30.16,10.0,South,10.4,-,N/A,,Clear,190,2013-09-06 14:15:00
9:35 AM,77.0,50.0,39,30.16,10.0,SSW,10.4,-,N/A,,Clear,200,2013-09-06 14:35:00
9:55 AM,78.8,50.0,36,30.16,10.0,South,9.2,-,N/A,,Clear,190,2013-09-06 14:55:00
10:15 AM,80.6,50.0,34,30.16,10.0,South,12.7,-,N/A,,Clear,190,2013-09-06 15:15:00
10:35 AM,82.4,48.2,30,30.16,10.0,South,10.4,-,N/A,,Clear,190,2013-09-06 15:35:00
10:55 AM,86.0,50.0,29,30.16,10.0,SSW,9.2,-,N/A,,Clear,210,2013-09-06 15:55:00
11:15 AM,87.8,48.2,25,30.16,10.0,SSW,15.0,18.4,N/A,,Clear,200,2013-09-06 16:15:00
11:35 AM,89.6,48.2,24,30.16,10.0,SSW,16.1,-,N/A,,Clear,200,2013-09-06 16:35:00
11:55 AM,91.4,48.2,23,30.15,10.0,SSW,13.8,-,N/A,,Clear,200,2013-09-06 16:55:00
12:15 PM,93.2,48.2,21,30.14,10.0,South,15.0,20.7,N/A,,Clear,190,2013-09-06 17:15:00
12:35 PM,93.2,48.2,21,30.14,10.0,SSW,13.8,-,N/A,,Clear,200,2013-09-06 17:35:00
12:55 PM,93.2,46.4,20,30.13,10.0,SSW,13.8,21.9,N/A,,Clear,200,2013-09-06 17:55:00
1:15 PM,96.8,46.4,18,30.13,10.0,SSW,13.8,19.6,N/A,,Clear,200,2013-09-06 18:15:00
1:35 PM,96.8,44.6,17,30.12,10.0,SW,12.7,-,N/A,,Clear,220,2013-09-06 18:35:00
1:55 PM,96.8,44.6,17,30.11,10.0,South,18.4,24.2,N/A,,Clear,190,2013-09-06 18:55:00
2:15 PM,96.8,44.6,17,30.11,10.0,SSW,10.4,18.4,N/A,,Clear,210,2013-09-06 19:15:00
2:35 PM,98.6,44.6,16,30.10,10.0,South,17.3,24.2,N/A,,Clear,190,2013-09-06 19:35:00
2:55 PM,98.6,44.6,16,30.09,10.0,South,15.0,26.5,N/A,,Clear,170,2013-09-06 19:55:00
3:15 PM,98.6,44.6,16,30.08,10.0,SSE,12.7,21.9,N/A,,Clear,160,2013-09-06 20:15:00
3:35 PM,98.6,44.6,16,30.08,10.0,SSW,9.2,19.6,N/A,,Clear,210,2013-09-06 20:35:00
3:55 PM,98.6,46.4,17,30.07,10.0,SSW,19.6,23.0,N/A,,Clear,210,2013-09-06 20:55:00
4:15 PM,98.6,46.4,17,30.07,10.0,South,16.1,21.9,N/A,,Clear,190,2013-09-06 21:15:00
4:35 PM,98.6,46.4,17,30.06,10.0,SSW,18.4,23.0,N/A,,Clear,200,2013-09-06 21:35:00
4:55 PM,98.6,46.4,17,30.05,10.0,South,11.5,-,N/A,,Clear,170,2013-09-06 21:55:00
5:15 PM,98.6,46.4,17,30.05,10.0,SSW,13.8,21.9,N/A,,Clear,200,2013-09-06 22:15:00
5:35 PM,98.6,46.4,17,30.05,10.0,South,17.3,20.7,N/A,,Clear,180,2013-09-06 22:35:00
5:55 PM,96.8,46.4,18,30.04,10.0,South,12.7,21.9,N/A,,Clear,180,2013-09-06 22:55:00
6:15 PM,96.8,46.4,18,30.04,10.0,South,13.8,-,N/A,,Clear,180,2013-09-06 23:15:00
6:35 PM,96.8,48.2,19,30.04,10.0,SSW,13.8,-,N/A,,Clear,200,2013-09-06 23:35:00
6:55 PM,96.8,48.2,19,30.04,10.0,SSW,12.7,-,N/A,,Clear,200,2013-09-06 23:55:00
7:15 PM,95.0,48.2,20,30.04,10.0,South,11.5,17.3,N/A,,Clear,190,2013-09-07 00:15:00
7:35 PM,93.2,48.2,21,30.03,10.0,South,10.4,-,N/A,,Clear,180,2013-09-07 00:35:00
7:55 PM,91.4,48.2,23,30.03,10.0,South,8.1,-,N/A,,Clear,190,2013-09-07 00:55:00
8:15 PM,87.8,48.2,25,30.03,10.0,South,8.1,-,N/A,,Clear,180,2013-09-07 01:15:00
8:35 PM,86.0,48.2,27,30.04,10.0,South,8.1,-,N/A,,Clear,180,2013-09-07 01:35:00
8:55 PM,84.2,48.2,29,30.04,10.0,South,8.1,-,N/A,,Clear,180,2013-09-07 01:55:00
9:15 PM,82.4,48.2,30,30.04,10.0,SE,8.1,-,N/A,,Clear,140,2013-09-07 02:15:00
9:35 PM,80.6,50.0,34,30.05,10.0,SSE,10.4,-,N/A,,Clear,150,2013-09-07 02:35:00
9:55 PM,82.4,50.0,32,30.06,10.0,South,11.5,-,N/A,,Clear,170,2013-09-07 02:55:00
10:15 PM,80.6,50.0,34,30.06,10.0,South,10.4,-,N/A,,Clear,170,2013-09-07 03:15:00
10:35 PM,80.6,51.8,37,30.06,10.0,South,11.5,-,N/A,,Clear,170,2013-09-07 03:35:00
10:55 PM,78.8,51.8,39,30.06,10.0,South,10.4,-,N/A,,Clear,180,2013-09-07 03:55:00
11:15 PM,78.8,51.8,39,30.06,10.0,South,10.4,-,N/A,,Clear,180,2013-09-07 04:15:00
11:35 PM,78.8,53.6,42,30.06,10.0,South,9.2,-,N/A,,Clear,180,2013-09-07 04:35:00
11:55 PM,77.0,51.8,41,30.07,10.0,South,8.1,-,N/A,,Clear,180,2013-09-07 04:55:00